createdAt,value
2023-03-19T00:01:04.484Z,101073.72
2023-03-19T00:03:32.715Z,101069.00
2023-03-19T00:06:02.467Z,101076.72
2023-03-19T00:08:31.093Z,101075.53
2023-03-19T00:10:59.300Z,101080.16
2023-03-19T00:13:28.099Z,101077.38
2023-03-19T00:15:56.235Z,101076.06
2023-03-19T00:18:24.619Z,101076.00
2023-03-19T00:20:52.816Z,101076.69
2023-03-19T00:23:22.610Z,101077.09
2023-03-19T00:25:50.830Z,101071.28
2023-03-19T00:28:19.127Z,101068.56
2023-03-19T00:30:47.332Z,101067.81
2023-03-19T00:33:15.831Z,101067.03
2023-03-19T00:35:44.038Z,101065.09
2023-03-19T00:38:12.259Z,101067.81
2023-03-19T00:40:42.586Z,101060.06
2023-03-19T00:43:10.839Z,101061.22
2023-03-19T00:45:38.992Z,101061.50
2023-03-19T00:48:08.008Z,101067.63
2023-03-19T00:50:36.436Z,101065.94
2023-03-19T00:53:04.630Z,101060.06
2023-03-19T00:55:33.014Z,101066.75
2023-03-19T00:58:02.681Z,101060.94
2023-03-19T01:00:30.916Z,101057.50
2023-03-19T01:02:59.105Z,101069.91
2023-03-19T01:05:27.683Z,101069.44
2023-03-19T01:07:55.921Z,101060.00
2023-03-19T01:10:26.049Z,101066.56
2023-03-19T01:12:54.271Z,101073.47
2023-03-19T01:15:23.831Z,101061.06
2023-03-19T01:17:52.098Z,101061.06
2023-03-19T01:20:23.984Z,101066.91
2023-03-19T01:22:52.267Z,101056.44
2023-03-19T01:25:21.264Z,101074.63
2023-03-19T01:27:49.443Z,101062.19
2023-03-19T01:30:17.861Z,101076.13
2023-03-19T01:32:47.538Z,101069.13
2023-03-19T01:35:15.829Z,101072.19
2023-03-19T01:37:44.076Z,101067.78
2023-03-19T01:40:14.503Z,101068.19
2023-03-19T01:42:57.111Z,101065.81
2023-03-19T01:45:35.403Z,101057.94
2023-03-19T01:48:06.390Z,101062.19
2023-03-19T01:50:41.876Z,101056.28
2023-03-19T01:53:12.667Z,101064.00
2023-03-19T01:55:42.728Z,101068.53
2023-03-19T01:58:11.907Z,101066.13
2023-03-19T02:00:40.431Z,101062.66
2023-03-19T02:03:10.954Z,101061.47
2023-03-19T02:05:40.835Z,101059.97
2023-03-19T02:08:12.878Z,101064.25
2023-03-19T02:10:42.368Z,101062.34
2023-03-19T02:13:10.555Z,101062.34
2023-03-19T02:15:39.124Z,101055.47
2023-03-19T02:18:09.842Z,101052.00
2023-03-19T02:20:46.559Z,101051.66
2023-03-19T02:23:23.190Z,101057.06
2023-03-19T02:26:02.573Z,101058.69
2023-03-19T02:28:33.526Z,101056.28
2023-03-19T02:31:02.070Z,101061.72
2023-03-19T02:33:30.319Z,101064.41
2023-03-19T02:35:59.387Z,101053.94
2023-03-19T02:38:29.180Z,101070.97
2023-03-19T02:41:04.596Z,101062.44
2023-03-19T02:43:33.831Z,101067.88
2023-03-19T02:46:03.118Z,101074.44
2023-03-19T02:48:32.421Z,101084.13
2023-03-19T02:51:01.159Z,101074.44
2023-03-19T02:53:29.378Z,101071.72
2023-03-19T02:55:58.920Z,101064.72
2023-03-19T02:58:27.095Z,101071.25
2023-03-19T03:00:55.417Z,101071.25
2023-03-19T03:03:23.682Z,101065.84
2023-03-19T03:05:51.844Z,101064.25
2023-03-19T03:08:20.661Z,101065.06
2023-03-19T03:10:48.919Z,101062.34
2023-03-19T03:13:18.642Z,101070.47
2023-03-19T03:15:46.802Z,101071.25
2023-03-19T03:18:14.992Z,101074.78
2023-03-19T03:20:43.238Z,101080.53
2023-03-19T03:23:11.451Z,101075.03
2023-03-19T03:25:39.775Z,101078.09
2023-03-19T03:28:08.791Z,101081.16
2023-03-19T03:30:38.308Z,101072.59
2023-03-19T03:33:07.291Z,101088.06
2023-03-19T03:35:35.537Z,101078.34
2023-03-19T03:38:04.197Z,101090.78
2023-03-19T03:40:33.701Z,101084.66
2023-03-19T03:43:02.463Z,101088.94
2023-03-19T03:45:30.870Z,101088.56
2023-03-19T03:48:00.695Z,101090.94
2023-03-19T03:50:28.880Z,101088.34
2023-03-19T03:52:57.110Z,101096.09
2023-03-19T03:55:25.312Z,101086.84
2023-03-19T03:57:53.474Z,101093.81
2023-03-19T04:00:22.674Z,101091.53
2023-03-19T04:02:50.966Z,101100.44
2023-03-19T04:05:20.946Z,101092.31
2023-03-19T04:07:49.224Z,101105.88
2023-03-19T04:10:17.528Z,101103.97
2023-03-19T04:12:46.449Z,101103.63
2023-03-19T04:15:14.660Z,101107.50
2023-03-19T04:17:42.834Z,101109.09
2023-03-19T04:20:13.600Z,101112.25
2023-03-19T04:22:43.238Z,101125.03
2023-03-19T04:25:11.762Z,101123.78
2023-03-19T04:27:39.923Z,101127.28
2023-03-19T04:30:09.938Z,101124.50
2023-03-19T04:32:38.272Z,101122.47
2023-03-19T04:35:08.159Z,101133.66
2023-03-19T04:37:36.403Z,101129.75
2023-03-19T04:40:07.808Z,101128.09
2023-03-19T04:42:35.999Z,101123.72
2023-03-19T04:45:04.643Z,101122.41
2023-03-19T04:47:32.832Z,101131.56
2023-03-19T04:50:01.016Z,101140.06
2023-03-19T04:52:29.965Z,101134.56
2023-03-19T04:54:58.168Z,101137.19
2023-03-19T04:57:27.699Z,101136.03
2023-03-19T04:59:55.917Z,101141.81
2023-03-19T05:02:24.358Z,101137.88
2023-03-19T05:04:52.530Z,101153.06
2023-03-19T05:07:20.898Z,101144.16
2023-03-19T05:09:49.151Z,101141.44
2023-03-19T05:12:17.326Z,101143.81
2023-03-19T05:14:46.832Z,101144.59
2023-03-19T05:17:15.611Z,101162.09
2023-03-19T05:19:43.882Z,101154.41
2023-03-19T05:22:12.223Z,101158.34
2023-03-19T05:24:40.421Z,101154.03
2023-03-19T05:27:08.589Z,101159.47
2023-03-19T05:29:39.224Z,101154.03
2023-03-19T05:32:11.082Z,101154.50
2023-03-19T05:34:39.526Z,101157.63
2023-03-19T05:37:08.562Z,101158.09
2023-03-19T05:39:36.766Z,101157.72
2023-03-19T05:42:05.367Z,101161.56
2023-03-19T05:44:33.581Z,101168.13
2023-03-19T05:47:01.780Z,101162.69
2023-03-19T05:49:31.401Z,101167.78
2023-03-19T05:52:00.183Z,101163.50
2023-03-19T05:54:28.414Z,101165.06
2023-03-19T05:56:56.847Z,101163.56
2023-03-19T05:59:25.092Z,101170.56
2023-03-19T06:01:53.301Z,101178.34
2023-03-19T06:04:21.551Z,101175.97
2023-03-19T06:06:51.157Z,101172.13
2023-03-19T06:09:19.321Z,101182.97
2023-03-19T06:11:47.536Z,101186.81
2023-03-19T06:14:15.759Z,101175.63
2023-03-19T06:16:43.950Z,101185.38
2023-03-19T06:19:12.133Z,101187.69
2023-03-19T06:21:40.334Z,101190.06
2023-03-19T06:24:10.243Z,101196.25
2023-03-19T06:26:38.899Z,101199.31
2023-03-19T06:29:07.617Z,101208.59
2023-03-19T06:31:36.352Z,101203.53
2023-03-19T06:34:04.582Z,101205.88
2023-03-19T06:36:32.899Z,101210.50
2023-03-19T06:39:01.038Z,101213.56
2023-03-19T06:41:30.852Z,101212.00
2023-03-19T06:43:59.168Z,101216.28
2023-03-19T06:46:27.363Z,101216.28
2023-03-19T06:48:55.580Z,101214.72
2023-03-19T06:51:27.903Z,101206.13
2023-03-19T06:53:56.686Z,101218.72
2023-03-19T06:56:24.946Z,101223.81
2023-03-19T06:58:54.512Z,101218.47
2023-03-19T07:01:23.088Z,101234.50
2023-03-19T07:03:51.503Z,101233.44
2023-03-19T07:06:19.741Z,101228.91
2023-03-19T07:08:48.013Z,101230.13
2023-03-19T07:11:16.399Z,101232.47
2023-03-19T07:13:44.741Z,101224.88
2023-03-19T07:16:14.318Z,101228.88
2023-03-19T07:18:42.487Z,101231.41
2023-03-19T07:21:10.670Z,101227.28
2023-03-19T07:23:38.870Z,101229.38
2023-03-19T07:26:07.036Z,101236.09
2023-03-19T07:28:35.528Z,101235.88
2023-03-19T07:31:03.731Z,101230.47
2023-03-19T07:33:33.323Z,101237.59
2023-03-19T07:36:01.746Z,101245.81
2023-03-19T07:38:30.173Z,101236.97
2023-03-19T07:41:02.421Z,101241.31
2023-03-19T07:43:31.554Z,101240.34
2023-03-19T07:46:00.019Z,101251.34
2023-03-19T07:48:28.538Z,101246.34
2023-03-19T07:50:58.661Z,101250.28
2023-03-19T07:53:27.152Z,101253.88
2023-03-19T07:55:55.376Z,101259.34
2023-03-19T07:58:23.549Z,101260.66
2023-03-19T08:00:51.809Z,101258.06
2023-03-19T08:03:20.005Z,101273.81
2023-03-19T08:05:49.990Z,101265.53
2023-03-19T08:08:19.619Z,101265.75
2023-03-19T08:10:50.697Z,101268.22
2023-03-19T08:13:18.756Z,101268.22
2023-03-19T08:15:47.054Z,101264.63
2023-03-19T08:18:15.546Z,101270.34
2023-03-19T08:20:45.658Z,101275.38
2023-03-19T08:23:14.162Z,101273.06
2023-03-19T08:25:43.754Z,101275.00
2023-03-19T08:28:11.961Z,101280.44
2023-03-19T08:30:41.114Z,101273.53
2023-03-19T08:33:09.760Z,101270.81
2023-03-19T08:35:38.271Z,101283.25
2023-03-19T08:38:07.053Z,101278.97
2023-03-19T08:40:35.942Z,101286.75
2023-03-19T08:43:06.767Z,101287.63
2023-03-19T08:45:35.023Z,101287.66
2023-03-19T08:48:04.067Z,101291.16
2023-03-19T08:50:32.713Z,101297.38
2023-03-19T08:53:01.102Z,101301.69
2023-03-19T08:55:29.385Z,101299.41
2023-03-19T08:57:57.575Z,101301.84
2023-03-19T09:00:27.915Z,101303.94
2023-03-19T09:02:56.140Z,101307.56
2023-03-19T09:05:24.380Z,101308.94
2023-03-19T09:07:53.358Z,101312.97
2023-03-19T09:10:21.651Z,101313.34
2023-03-19T09:12:49.859Z,101317.25
2023-03-19T09:15:18.163Z,101315.97
2023-03-19T09:17:47.762Z,101331.84
2023-03-19T09:20:16.298Z,101338.97
2023-03-19T09:22:44.593Z,101331.22
2023-03-19T09:25:13.243Z,101333.56
2023-03-19T09:27:41.433Z,101343.44
2023-03-19T09:30:11.644Z,101337.03
2023-03-19T09:32:39.871Z,101324.47
2023-03-19T09:35:10.994Z,101335.09
2023-03-19T09:37:39.109Z,101333.53
2023-03-19T09:40:12.325Z,101337.34
2023-03-19T09:42:57.123Z,101331.06
2023-03-19T09:45:26.049Z,101331.56
2023-03-19T09:48:01.479Z,101338.38
2023-03-19T09:50:34.708Z,101335.38
2023-03-19T09:53:09.676Z,101350.22
2023-03-19T09:55:44.782Z,101351.38
2023-03-19T09:58:17.894Z,101355.22
2023-03-19T10:00:50.660Z,101357.09
2023-03-19T10:03:40.480Z,101351.63
2023-03-19T10:06:31.885Z,101356.25
2023-03-19T10:09:27.280Z,101369.38
2023-03-19T10:12:19.147Z,101373.34
2023-03-19T10:15:11.424Z,101357.63
2023-03-19T10:17:45.554Z,101362.91
2023-03-19T10:20:38.033Z,101359.06
2023-03-19T10:23:25.704Z,101364.41
2023-03-19T10:25:56.442Z,101367.03
2023-03-19T10:28:24.732Z,101370.47
2023-03-19T10:31:05.688Z,101370.34
2023-03-19T10:33:45.156Z,101364.13
2023-03-19T10:36:16.188Z,101360.28
2023-03-19T10:38:46.326Z,101369.59
2023-03-19T10:41:30.442Z,101361.84
2023-03-19T10:44:03.787Z,101363.91
2023-03-19T10:46:40.012Z,101361.63
2023-03-19T10:49:14.063Z,101372.50
2023-03-19T10:51:45.422Z,101366.50
2023-03-19T10:54:24.200Z,101371.09
2023-03-19T10:56:56.696Z,101375.06
2023-03-19T10:59:28.013Z,101370.59
2023-03-19T11:02:01.077Z,101376.31
2023-03-19T11:04:30.028Z,101383.53
2023-03-19T11:07:05.087Z,101378.25
2023-03-19T11:09:38.026Z,101381.50
2023-03-19T11:12:21.479Z,101372.19
2023-03-19T11:14:51.803Z,101380.84
2023-03-19T11:17:25.674Z,101377.38
2023-03-19T11:19:56.799Z,101372.31
2023-03-19T11:22:27.118Z,101367.59
2023-03-19T11:24:59.130Z,101375.41
2023-03-19T11:27:34.759Z,101374.56
2023-03-19T11:30:07.735Z,101372.94
2023-03-19T11:33:32.766Z,101383.50
2023-03-19T11:36:12.965Z,101380.75
2023-03-19T11:39:00.659Z,101380.72
2023-03-19T11:41:50.761Z,101379.88
2023-03-19T11:44:26.654Z,101372.84
2023-03-19T11:47:10.231Z,101381.53
2023-03-19T11:50:05.889Z,101381.63
2023-03-19T11:52:41.367Z,101376.97
2023-03-19T11:55:22.543Z,101372.69
2023-03-19T11:58:25.442Z,101363.31
2023-03-19T12:00:55.293Z,101365.25
2023-03-19T12:03:54.370Z,101364.09
2023-03-19T12:06:39.791Z,101363.69
2023-03-19T12:09:16.049Z,101365.22
2023-03-19T12:11:54.363Z,101365.97
2023-03-19T12:14:40.142Z,101369.00
2023-03-19T12:17:25.504Z,101367.38
2023-03-19T12:20:19.205Z,101367.28
2023-03-19T12:23:05.834Z,101373.13
2023-03-19T12:26:04.971Z,101377.81
2023-03-19T12:28:36.193Z,101369.97
2023-03-19T12:31:37.669Z,101371.91
2023-03-19T12:34:29.716Z,101370.28
2023-03-19T12:37:14.765Z,101364.75
2023-03-19T12:39:51.624Z,101367.88
2023-03-19T12:42:22.729Z,101360.88
2023-03-19T12:44:54.571Z,101364.06
2023-03-19T12:47:30.944Z,101362.59
2023-03-19T12:50:04.541Z,101361.38
2023-03-19T12:52:37.796Z,101353.09
2023-03-19T12:55:16.212Z,101358.94
2023-03-19T12:57:48.786Z,101363.56
2023-03-19T13:00:24.087Z,101363.09
2023-03-19T13:02:58.943Z,101364.63
2023-03-19T13:05:34.081Z,101363.13
2023-03-19T13:08:11.873Z,101358.50
2023-03-19T13:10:40.362Z,101358.06
2023-03-19T13:13:33.122Z,101362.81
2023-03-19T13:16:13.911Z,101361.59
2023-03-19T13:18:51.391Z,101364.31
2023-03-19T13:21:25.785Z,101367.41
2023-03-19T13:24:07.051Z,101355.22
2023-03-19T13:26:36.173Z,101359.16
2023-03-19T13:29:14.353Z,101353.66
2023-03-19T13:31:43.533Z,101347.03
2023-03-19T13:34:29.086Z,101347.03
2023-03-19T13:37:05.712Z,101348.19
2023-03-19T13:39:35.626Z,101355.69
2023-03-19T13:42:38.465Z,101354.56
2023-03-19T13:45:35.892Z,101355.41
2023-03-19T13:48:36.456Z,101359.47
2023-03-19T13:51:17.799Z,101364.63
2023-03-19T13:53:55.108Z,101369.38
2023-03-19T13:56:30.076Z,101364.34
2023-03-19T13:59:25.178Z,101361.66
2023-03-19T14:01:55.216Z,101361.69
2023-03-19T14:04:29.192Z,101369.13
2023-03-19T14:06:59.823Z,101366.44
2023-03-19T14:09:39.791Z,101366.03
2023-03-19T14:12:25.307Z,101364.47
2023-03-19T14:14:57.846Z,101365.25
2023-03-19T14:17:32.831Z,101365.25
2023-03-19T14:20:28.297Z,101371.13
2023-03-19T14:23:23.446Z,101362.50
2023-03-19T14:26:12.606Z,101371.53
2023-03-19T14:28:54.823Z,101371.50
2023-03-19T14:31:33.989Z,101370.75
2023-03-19T14:34:19.236Z,101380.13
2023-03-19T14:36:55.927Z,101378.53
2023-03-19T14:39:27.513Z,101383.22
2023-03-19T14:42:04.925Z,101389.47
2023-03-19T14:45:37.850Z,101386.25
2023-03-19T14:49:19.321Z,101394.03
2023-03-19T14:52:01.115Z,101388.06
2023-03-19T14:54:37.360Z,101391.53
2023-03-19T14:57:19.936Z,101388.38
2023-03-19T14:59:50.667Z,101390.28
2023-03-19T15:02:35.932Z,101385.13
2023-03-19T15:05:08.516Z,101388.22
2023-03-19T15:07:41.852Z,101378.81
2023-03-19T15:10:18.448Z,101383.50
2023-03-19T15:13:14.406Z,101383.44
2023-03-19T15:16:11.443Z,101388.09
2023-03-19T15:18:40.116Z,101393.91
2023-03-19T15:21:08.605Z,101397.06
2023-03-19T15:23:41.551Z,101398.94
2023-03-19T15:26:11.832Z,101407.50
2023-03-19T15:28:53.788Z,101410.59
2023-03-19T15:31:37.543Z,101412.09
2023-03-19T15:34:22.612Z,101416.00
2023-03-19T15:36:57.140Z,101413.97
2023-03-19T15:39:31.079Z,101416.69
2023-03-19T15:42:02.022Z,101415.13
2023-03-19T15:44:36.613Z,101419.00
2023-03-19T15:47:08.943Z,101420.94
2023-03-19T15:49:40.687Z,101408.06
2023-03-19T15:52:14.089Z,101413.53
2023-03-19T15:54:44.406Z,101421.38
2023-03-19T15:57:15.732Z,101425.28
2023-03-19T15:59:44.231Z,101421.38
2023-03-19T16:02:20.982Z,101423.75
2023-03-19T16:05:20.411Z,101428.41
2023-03-19T16:07:43.669Z,101428.06
2023-03-19T16:10:35.974Z,101427.25
2023-03-19T16:13:18.902Z,101429.63
2023-03-19T16:15:49.460Z,101433.91
2023-03-19T16:18:29.854Z,101439.38
2023-03-19T16:21:09.198Z,101439.38
2023-03-19T16:23:41.495Z,101444.81
2023-03-19T16:26:23.101Z,101454.94
2023-03-19T16:29:04.794Z,101454.19
2023-03-19T16:31:41.852Z,101452.97
2023-03-19T16:34:32.244Z,101464.25
2023-03-19T16:37:01.179Z,101462.31
2023-03-19T16:39:35.960Z,101472.44
2023-03-19T16:42:39.219Z,101476.66
2023-03-19T16:45:28.068Z,101480.53
2023-03-19T16:47:58.348Z,101481.69
2023-03-19T16:50:31.917Z,101485.19
2023-03-19T16:53:01.552Z,101487.47
2023-03-19T16:55:33.569Z,101489.81
2023-03-19T16:58:07.758Z,101488.25
2023-03-19T17:00:36.320Z,101490.56
2023-03-19T17:03:04.943Z,101499.09
2023-03-19T17:05:33.365Z,101494.44
2023-03-19T17:08:01.866Z,101495.22
2023-03-19T17:10:32.035Z,101497.91
2023-03-19T17:13:03.117Z,101509.97
2023-03-19T17:15:35.687Z,101515.81
2023-03-19T17:18:11.781Z,101511.88
2023-03-19T17:20:48.618Z,101521.59
2023-03-19T17:23:17.120Z,101524.72
2023-03-19T17:25:46.301Z,101528.56
2023-03-19T17:28:15.997Z,101523.84
2023-03-19T17:30:44.255Z,101524.59
2023-03-19T17:33:24.779Z,101534.28
2023-03-19T17:35:54.003Z,101538.59
2023-03-19T17:38:24.649Z,101542.47
2023-03-19T17:40:52.934Z,101551.75
2023-03-19T17:43:22.507Z,101549.78
2023-03-19T17:45:51.679Z,101549.25
2023-03-19T17:48:24.066Z,101567.78
2023-03-19T17:50:53.488Z,101571.06
2023-03-19T17:53:21.706Z,101570.47
2023-03-19T17:55:49.922Z,101581.22
2023-03-19T17:58:20.906Z,101572.50
2023-03-19T18:00:51.793Z,101587.56
2023-03-19T18:03:23.022Z,101588.56
2023-03-19T18:05:52.000Z,101590.31
2023-03-19T18:08:23.755Z,101599.13
2023-03-19T18:10:52.630Z,101610.69
2023-03-19T18:13:21.366Z,101607.44
2023-03-19T18:15:51.313Z,101615.91
2023-03-19T18:18:22.912Z,101623.56
2023-03-19T18:20:51.443Z,101628.19
2023-03-19T18:23:19.823Z,101623.78
2023-03-19T18:25:48.526Z,101636.19
2023-03-19T18:28:16.843Z,101639.59
2023-03-19T18:30:46.178Z,101648.81
2023-03-19T18:33:21.752Z,101660.81
2023-03-19T18:35:50.109Z,101655.63
2023-03-19T18:38:21.195Z,101669.50
2023-03-19T18:40:50.011Z,101667.00
2023-03-19T18:43:18.575Z,101669.53
2023-03-19T18:45:50.510Z,101673.31
2023-03-19T18:48:26.511Z,101679.78
2023-03-19T18:50:55.389Z,101679.25
2023-03-19T18:53:25.043Z,101682.28
2023-03-19T18:55:53.631Z,101687.09
2023-03-19T18:58:24.200Z,101693.91
2023-03-19T19:00:53.462Z,101691.44
2023-03-19T19:03:28.511Z,101706.38
2023-03-19T19:05:56.953Z,101717.38
2023-03-19T19:08:27.878Z,101706.31
2023-03-19T19:11:01.873Z,101718.56
2023-03-19T19:13:46.311Z,101722.66
2023-03-19T19:16:26.594Z,101737.63
2023-03-19T19:18:56.404Z,101731.69
2023-03-19T19:21:24.862Z,101729.56
2023-03-19T19:23:53.404Z,101731.59
2023-03-19T19:26:26.356Z,101734.09
2023-03-19T19:28:56.987Z,101742.50
2023-03-19T19:31:27.906Z,101745.53
2023-03-19T19:33:58.791Z,101748.84
2023-03-19T19:36:28.840Z,101746.38
2023-03-19T19:38:57.152Z,101755.19
2023-03-19T19:41:28.068Z,101765.56
2023-03-19T19:43:57.398Z,101763.22
2023-03-19T19:46:26.163Z,101770.13
2023-03-19T19:48:55.718Z,101771.94
2023-03-19T19:51:28.174Z,101774.50
2023-03-19T19:53:56.402Z,101786.84
2023-03-19T19:56:26.674Z,101786.41
2023-03-19T19:58:57.456Z,101786.41
2023-03-19T20:01:27.342Z,101787.53
2023-03-19T20:03:55.743Z,101797.91
2023-03-19T20:06:25.679Z,101798.97
2023-03-19T20:08:53.937Z,101811.25
2023-03-19T20:11:25.009Z,101802.19
2023-03-19T20:13:55.550Z,101813.72
2023-03-19T20:16:26.573Z,101810.44
2023-03-19T20:18:55.885Z,101814.50
2023-03-19T20:21:25.717Z,101821.16
2023-03-19T20:23:55.991Z,101822.50
2023-03-19T20:26:25.848Z,101819.22
2023-03-19T20:28:54.486Z,101831.41
2023-03-19T20:31:28.164Z,101829.19
2023-03-19T20:33:57.358Z,101838.66
2023-03-19T20:36:27.637Z,101838.72
2023-03-19T20:38:55.878Z,101834.66
2023-03-19T20:41:27.079Z,101839.50
2023-03-19T20:43:55.738Z,101836.19
2023-03-19T20:46:24.686Z,101835.56
2023-03-19T20:48:53.134Z,101838.16
2023-03-19T20:51:26.302Z,101844.22
2023-03-19T20:53:54.908Z,101839.81
2023-03-19T20:56:24.616Z,101841.25
2023-03-19T20:58:53.079Z,101837.63
2023-03-19T21:01:21.660Z,101844.00
2023-03-19T21:03:49.979Z,101848.19
2023-03-19T21:06:22.096Z,101858.84
2023-03-19T21:08:54.561Z,101855.69
2023-03-19T21:11:24.816Z,101845.53
2023-03-19T21:13:54.513Z,101860.16
2023-03-19T21:16:25.472Z,101862.41
2023-03-19T21:18:54.971Z,101854.47
2023-03-19T21:21:30.267Z,101865.81
2023-03-19T21:24:04.929Z,101862.59
2023-03-19T21:26:41.808Z,101858.63
2023-03-19T21:29:16.952Z,101859.25
2023-03-19T21:31:46.352Z,101866.59
2023-03-19T21:34:16.353Z,101865.84
2023-03-19T21:36:44.666Z,101862.66
2023-03-19T21:39:14.318Z,101870.44
2023-03-19T21:41:43.269Z,101865.38
2023-03-19T21:44:14.742Z,101869.53
2023-03-19T21:46:44.372Z,101869.81
2023-03-19T21:49:13.337Z,101871.72
2023-03-19T21:51:42.698Z,101861.59
2023-03-19T21:54:11.329Z,101867.63
2023-03-19T21:56:44.710Z,101869.44
2023-03-19T21:59:16.400Z,101872.13
2023-03-19T22:01:44.800Z,101866.56
2023-03-19T22:04:13.198Z,101871.03
2023-03-19T22:06:42.801Z,101867.72
2023-03-19T22:09:11.029Z,101866.78
2023-03-19T22:11:42.516Z,101866.78
2023-03-19T22:14:19.058Z,101876.34
2023-03-19T22:16:52.413Z,101875.84
2023-03-19T22:19:21.358Z,101884.28
2023-03-19T22:21:49.707Z,101883.34
2023-03-19T22:24:17.988Z,101886.03
2023-03-19T22:26:49.575Z,101891.78
2023-03-19T22:29:22.107Z,101889.25
2023-03-19T22:31:51.396Z,101890.03
2023-03-19T22:34:24.375Z,101883.84
2023-03-19T22:36:52.773Z,101882.25
2023-03-19T22:39:21.201Z,101879.88
2023-03-19T22:41:51.314Z,101882.56
2023-03-19T22:44:25.521Z,101882.09
2023-03-19T22:46:54.765Z,101888.59
2023-03-19T22:49:24.592Z,101884.66
2023-03-19T22:51:52.878Z,101884.97
2023-03-19T22:54:21.160Z,101885.59
2023-03-19T22:56:50.695Z,101877.00
2023-03-19T22:59:18.875Z,101882.78
2023-03-19T23:01:48.507Z,101886.28
2023-03-19T23:04:22.107Z,101892.13
2023-03-19T23:06:51.217Z,101885.59
2023-03-19T23:09:22.754Z,101903.91
2023-03-19T23:11:53.633Z,101908.53
2023-03-19T23:14:29.613Z,101905.03
2023-03-19T23:16:59.978Z,101906.63
2023-03-19T23:19:31.719Z,101913.75
2023-03-19T23:22:02.714Z,101917.13
2023-03-19T23:24:31.759Z,101917.75
2023-03-19T23:27:02.735Z,101922.34
2023-03-19T23:29:35.558Z,101926.97
2023-03-19T23:32:04.948Z,101921.09
2023-03-19T23:34:39.851Z,101914.56
2023-03-19T23:37:10.871Z,101919.19
2023-03-19T23:39:39.802Z,101926.97
2023-03-19T23:42:19.836Z,101932.38
2023-03-19T23:44:48.172Z,101932.06
2023-03-19T23:47:16.892Z,101926.97
2023-03-19T23:49:45.108Z,101934.75
2023-03-19T23:52:15.078Z,101946.06
2023-03-19T23:54:43.296Z,101946.88
2023-03-19T23:57:17.145Z,101943.38
2023-03-19T23:59:49.186Z,101954.97
